Pine Haven, Wyoming
Current Conditions -  °F | °C
As of 5:53 AM on Sunday 21 Dec 2014 (Local Time) from KGCC Reporting Station
Clear Clear  
Wind Chill: 24°   Ceiling: Unl
Heat Index: 35°   Visibility: 10mi
Dew Point: 25°   Wind: 18mph
Humidity: 67%   Direction: 220°SW
Pressure: 29.49"   Gusts: 26mph
Location:  44.3253°N, 104.815°W
Report Text: KGCC 211253Z AUTO 22016G23KT 10SM CLR 02/M04 A2949 RMK AO2 SLP005 T00171039 TSNO
Loading
Personal Weather Stations






























Interactive Weather Map New forecast layout! Learn more

10-Day Weather Forecast

Advertisements
Track Severe Weather on mobile